Bozouls

FR-0613 · Aveyron, Occitanie, Frankrijk

METAR historie FR-0613 · Bozouls

Hieronder zie je METAR's van de afgelopen dagen. Kies een jaar om door oudere METAR's te bladeren, vanaf het jaar 2007.

18 juli 2024

Tijd Code Weer Temp. Zicht Plafond Wind METAR/SPECI
01:30
V
17 °C 10 km+ - 150° 150° 3 kt METAR LFCR 172330Z AUTO 15003KT CAVOK 17/15 Q1020 NOSIG
01:00
V
17 °C 10 km+ - 140° 140° 3 kt METAR LFCR 172300Z AUTO 14003KT CAVOK 17/15 Q1020 NOSIG
00:30
V
17 °C 10 km+ - 140° 140° 4 kt METAR LFCR 172230Z AUTO 14004KT CAVOK 17/15 Q1020 NOSIG
00:00
V
18 °C 10 km+ - 140° 140° 2 kt METAR LFCR 172200Z AUTO 14002KT CAVOK 18/15 Q1020 NOSIG

17 juli 2024

Tijd Code Weer Temp. Zicht Plafond Wind METAR/SPECI
23:30
V
17 °C 10 km+ - 200° 200° 3 kt METAR LFCR 172130Z AUTO 20003KT CAVOK 17/15 Q1020 NOSIG
23:00
V
18 °C 10 km+ - 200° 200° 3 kt METAR LFCR 172100Z AUTO 20003KT CAVOK 18/16 Q1020 NOSIG
22:30
V
19 °C 10 km+ - 190° 190° 2 kt METAR LFCR 172030Z AUTO 19002KT CAVOK 19/16 Q1020 NOSIG
22:00
I
20 °C 4,5 km - 250° 250° 2 kt METAR LFCR 172000Z AUTO 25002KT 9999 4500 NSC 20/15 Q1020 NOSIG
21:30
V
21 °C 10 km+ - 250° 250° 2 kt METAR LFCR 171930Z AUTO 25002KT CAVOK 21/14 Q1020 NOSIG
21:00
V
23 °C 10 km+ - 300° 300° 4 kt METAR LFCR 171900Z AUTO 30004KT CAVOK 23/16 Q1020 NOSIG
20:30
V
25 °C 10 km+ - Var Var 3 kt METAR LFCR 171830Z AUTO VRB03KT CAVOK 25/17 Q1019 NOSIG
20:00
V
25 °C 10 km+ - 330° 330° 4 kt METAR LFCR 171800Z AUTO 33004KT CAVOK 25/17 Q1019 NOSIG
19:30
V
25 °C 10 km+ - 330° 330° 3 kt METAR LFCR 171730Z AUTO 33003KT 300V360 CAVOK 25/15 Q1019 NOSIG
19:00
V
25 °C 10 km+ - 350° 350° 3 kt METAR LFCR 171700Z AUTO 35003KT 300V020 CAVOK 25/15 Q1019 NOSIG
18:30
V
25 °C 10 km+ - 350° 350° 4 kt METAR LFCR 171630Z AUTO 35004KT 300V060 CAVOK 25/14 Q1019 NOSIG
18:00
V
25 °C 10 km+ - 360° 360° 4 kt METAR LFCR 171600Z AUTO 36004KT 320V060 CAVOK 25/14 Q1019 NOSIG
17:30
V
25 °C 10 km+ - 340° 340° 6 kt METAR LFCR 171530Z AUTO 34006KT 310V020 CAVOK 25/13 Q1020 NOSIG
17:00
V
25 °C 10 km+ - 350° 350° 4 kt METAR LFCR 171500Z AUTO 35004KT 270V050 CAVOK 25/13 Q1020 NOSIG
16:30
V
25 °C 10 km+ - 020° 020° 5 kt METAR LFCR 171430Z AUTO 02005KT 330V070 CAVOK 25/13 Q1020 NOSIG
16:00
V
24 °C 10 km+ - 350° 350° 5 kt METAR LFCR 171400Z AUTO 35005KT 330V030 CAVOK 24/14 Q1020 NOSIG
15:30
V
24 °C 10 km+ - 340° 340° 6 kt METAR LFCR 171330Z AUTO 34006KT 300V030 CAVOK 24/14 Q1021 NOSIG
15:00
V
23 °C 10 km+ - 340° 340° 5 kt METAR LFCR 171300Z AUTO 34005KT 310V030 CAVOK 23/14 Q1021 NOSIG
14:30
V
23 °C 10 km+ - 330° 330° 5 kt METAR LFCR 171230Z AUTO 33005KT 280V020 CAVOK 23/15 Q1021 NOSIG
14:00
V
23 °C 10 km+ - 020° 020° 4 kt METAR LFCR 171200Z AUTO 02004KT 330V060 CAVOK 23/14 Q1022 NOSIG
13:30
V
22 °C 10 km+ - 330° 330° 5 kt METAR LFCR 171130Z AUTO 33005KT 290V020 CAVOK 22/12 Q1022 NOSIG
13:00
V
21 °C 10 km+ - 340° 340° 4 kt METAR LFCR 171100Z AUTO 34004KT 270V080 CAVOK 21/12 Q1022 NOSIG
12:30
V
21 °C 10 km+ - 310° 310° 7 kt METAR LFCR 171030Z AUTO 31007KT 270V360 CAVOK 21/13 Q1022 NOSIG
12:00
V
21 °C 10 km+ - 350° 350° 6 kt METAR LFCR 171000Z AUTO 35006KT 310V030 CAVOK 21/13 Q1022 NOSIG
11:30
V
20 °C 10 km+ - 320° 320° 6 kt METAR LFCR 170930Z AUTO 32006KT 270V360 CAVOK 20/12 Q1022 NOSIG
11:00
V
20 °C 10 km+ - 350° 350° 5 kt METAR LFCR 170900Z AUTO 35005KT 280V020 CAVOK 20/13 Q1022 NOSIG
10:30
V
20 °C 10 km+ - 350° 350° 5 kt METAR LFCR 170830Z AUTO 35005KT 320V030 CAVOK 20/12 Q1022 NOSIG
10:00
V
19 °C 10 km+ - 330° 330° 4 kt METAR LFCR 170800Z AUTO 33004KT 290V020 CAVOK 19/13 Q1022 NOSIG
09:30
V
19 °C 10 km+ - Var Var 2 kt METAR LFCR 170730Z AUTO VRB02KT CAVOK 19/14 Q1022 NOSIG
09:00
V
17 °C 10 km+ - 360° 360° 0 kt METAR LFCR 170700Z AUTO 00000KT CAVOK 17/14 Q1022 NOSIG
08:30
V
15 °C 10 km+ - 360° 360° 0 kt METAR LFCR 170630Z AUTO 00000KT CAVOK 15/14 Q1022 NOSIG
08:00
I
14 °C 2,5 km - Var Var 1 kt METAR LFCR 170600Z AUTO VRB01KT 9999 2500 NSC 14/12 Q1022 NOSIG
07:30
V
12 °C 10 km+ - 180° 180° 1 kt METAR LFCR 170530Z AUTO 18001KT CAVOK 12/12 Q1022 NOSIG
07:00
V
11 °C 10 km+ - 120° 120° 1 kt METAR LFCR 170500Z AUTO 12001KT CAVOK 11/10 Q1022 TEMPO 0800 BCFG
06:30
L
11 °C 800 m - 360° 360° 0 kt METAR LFCR 170430Z AUTO 00000KT 9999 0800 R31/P2000 BCFG NSC 11/11 Q1022 NOSIG
06:00
V
11 °C 10 km+ - 160° 160° 1 kt METAR LFCR 170400Z AUTO 16001KT CAVOK 11/11 Q1022 NOSIG
05:30
V
12 °C 10 km+ - 360° 360° 0 kt METAR LFCR 170330Z AUTO 00000KT CAVOK 12/11 Q1021 NOSIG
05:00
V
12 °C 10 km+ - 360° 360° 0 kt METAR LFCR 170300Z AUTO 00000KT CAVOK 12/11 Q1021 NOSIG
04:30
V
12 °C 10 km+ - 360° 360° 0 kt METAR LFCR 170230Z AUTO 00000KT CAVOK 12/11 Q1021 NOSIG
04:00
V
13 °C 10 km+ - 360° 360° 0 kt METAR LFCR 170200Z AUTO 00000KT CAVOK 13/12 Q1021 NOSIG
03:30
V
13 °C 10 km+ - 200° 200° 1 kt METAR LFCR 170130Z AUTO 20001KT CAVOK 13/12 Q1021 NOSIG
03:00
V
13 °C 10 km+ - 260° 260° 2 kt METAR LFCR 170100Z AUTO 26002KT CAVOK 13/12 Q1021 NOSIG
02:30
V
13 °C 10 km+ - 270° 270° 2 kt METAR LFCR 170030Z AUTO 27002KT CAVOK 13/12 Q1022 NOSIG
02:00
V
14 °C 10 km+ - 250° 250° 2 kt METAR LFCR 170000Z AUTO 25002KT CAVOK 14/12 Q1022 NOSIG
01:30
V
14 °C 10 km+ - Var Var 1 kt METAR LFCR 162330Z AUTO VRB01KT CAVOK 14/13 Q1022 NOSIG
01:00
V
15 °C 10 km+ - 290° 290° 2 kt METAR LFCR 162300Z AUTO 29002KT CAVOK 15/13 Q1022 NOSIG
00:30
V
14 °C 10 km+ - 260° 260° 3 kt METAR LFCR 162230Z AUTO 26003KT CAVOK 14/12 Q1022 NOSIG
00:00
V
15 °C 10 km+ - 200° 200° 2 kt METAR LFCR 162200Z AUTO 20002KT CAVOK 15/12 Q1022 NOSIG

16 juli 2024

Tijd Code Weer Temp. Zicht Plafond Wind METAR/SPECI
23:30
V
17 °C 10 km+ - 320° 320° 3 kt METAR LFCR 162130Z AUTO 32003KT CAVOK 17/13 Q1022 NOSIG
23:00
V
17 °C 10 km+ - 310° 310° 5 kt METAR LFCR 162100Z AUTO 31005KT CAVOK 17/13 Q1022 NOSIG
22:30
V
16 °C 10 km+ - 310° 310° 5 kt METAR LFCR 162030Z AUTO 31005KT CAVOK 16/13 Q1022 NOSIG
22:00
V
17 °C 10 km+ - 310° 310° 5 kt METAR LFCR 162000Z AUTO 31005KT CAVOK 17/13 Q1021 NOSIG
21:30
V
17 °C 10 km+ - 300° 300° 6 kt METAR LFCR 161930Z AUTO 30006KT CAVOK 17/13 Q1021 NOSIG
21:00
V
18 °C 10 km+ - 300° 300° 6 kt METAR LFCR 161900Z AUTO 30006KT CAVOK 18/13 Q1021 NOSIG
20:30
V
20 °C 10 km+ - 300° 300° 7 kt METAR LFCR 161830Z AUTO 30007KT 9999 FEW039 20/13 Q1021 NOSIG
20:00
V
21 °C 10 km+ - 320° 320° 6 kt METAR LFCR 161800Z AUTO 32006KT 290V350 9999 SCT039 21/13 Q1020 NOSIG
19:30
V
21 °C 10 km+ - 300° 300° 9 kt METAR LFCR 161730Z AUTO 30009KT 9999 FEW041 21/13 Q1020 NOSIG
19:00
V
22 °C 10 km+ - 320° 320° 9 kt METAR LFCR 161700Z AUTO 32009KT 280V350 CAVOK 22/14 Q1020 NOSIG
18:30
V
22 °C 10 km+ - 310° 310° 10 kt METAR LFCR 161630Z AUTO 31010KT CAVOK 22/13 Q1020 NOSIG
18:00
V
21 °C 10 km+ - 300° 300° 10 kt METAR LFCR 161600Z AUTO 30010KT 9999 FEW041 21/13 Q1020 NOSIG
17:30
V
23 °C 10 km+ - 320° 320° 10 kt METAR LFCR 161530Z AUTO 32010KT 290V350 9999 FEW039 23/13 Q1020 NOSIG
17:00
V
22 °C 10 km+ - 320° 320° 9 kt METAR LFCR 161500Z AUTO 32009KT CAVOK 22/13 Q1020 NOSIG
16:30
V
22 °C 10 km+ - 300° 300° 10 kt METAR LFCR 161430Z AUTO 30010KT 270V330 9999 FEW042 SCT050 22/13 Q1021 NOSIG
16:00
V
22 °C 10 km+ 4.800 ft 310° 310° 10 kt METAR LFCR 161400Z AUTO 31010KT 290V350 9999 FEW037 BKN048 22/14 Q1021 NOSIG
15:30
V
22 °C 10 km+ - 310° 310° 10 kt METAR LFCR 161330Z AUTO 31010KT 280V340 9999 FEW035 SCT041 22/13 Q1021 NOSIG
15:00
V
21 °C 10 km+ - 320° 320° 9 kt METAR LFCR 161300Z AUTO 32009KT 280V360 9999 FEW036 21/13 Q1021 NOSIG
14:30
V
21 °C 10 km+ - 320° 320° 7 kt METAR LFCR 161230Z AUTO 32007KT 270V360 9999 FEW035 21/13 Q1021 NOSIG
14:00
V
21 °C 10 km+ - 300° 300° 10 kt METAR LFCR 161200Z AUTO 30010KT 280V340 9999 FEW029 SCT049 21/14 Q1021 NOSIG
13:30
V
21 °C 10 km+ - 320° 320° 9 kt METAR LFCR 161130Z AUTO 32009KT 280V350 9999 FEW031 21/15 Q1021 NOSIG
13:00
V
20 °C 10 km+ 3.300 ft 320° 320° 8 kt METAR LFCR 161100Z AUTO 32008KT 290V350 9999 SCT028 BKN033 BKN041 20/14 Q1021 NOSIG
12:30
V
20 °C 10 km+ - 310° 310° 9 kt METAR LFCR 161030Z AUTO 31009KT 9999 SCT028 20/13 Q1021 NOSIG
12:00
V
19 °C 10 km+ - 320° 320° 10 kt METAR LFCR 161000Z AUTO 32010KT 300V010 9999 FEW024 19/14 Q1021 NOSIG
11:30
V
19 °C 10 km+ - 300° 300° 8 kt METAR LFCR 160930Z AUTO 30008KT 270V350 9999 FEW023 19/14 Q1021 NOSIG
11:00
V
19 °C 10 km+ - 300° 300° 9 kt METAR LFCR 160900Z AUTO 30009KT 270V360 9999 FEW019 19/13 Q1021 NOSIG
10:30
V
18 °C 10 km+ - 300° 300° 8 kt METAR LFCR 160830Z AUTO 30008KT 9999 SCT014 18/14 Q1021 NOSIG
10:00
M
17 °C 10 km+ 1.200 ft 320° 320° 5 kt METAR LFCR 160800Z AUTO 32005KT 270V040 9999 BKN012 BKN062 17/14 Q1021 BECMG NSC
09:30
M
17 °C 10 km+ 1.000 ft 330° 330° 5 kt METAR LFCR 160730Z AUTO 33005KT 300V020 9999 BKN010 BKN015 17/14 Q1021 BECMG NSC
09:00
M
17 °C 10 km+ 1.000 ft 320° 320° 6 kt METAR LFCR 160700Z AUTO 32006KT 9999 BKN010 BKN090 17/15 Q1021 BECMG NSC
08:30
V
16 °C 10 km+ 4.800 ft 300° 300° 8 kt METAR LFCR 160630Z AUTO 30008KT 9999 BKN048 BKN060 BKN070 16/14 Q1020 NOSIG
08:00
V
16 °C 10 km+ 4.800 ft 300° 300° 8 kt METAR LFCR 160600Z AUTO 30008KT 9999 BKN048 OVC054 16/15 Q1020 NOSIG
07:30
V
15 °C 10 km+ 5.000 ft 290° 290° 6 kt METAR LFCR 160530Z AUTO 29006KT 9999 FEW014 OVC050 15/14 Q1020 NOSIG
07:00
V
15 °C 10 km+ 5.000 ft 290° 290° 6 kt METAR LFCR 160500Z AUTO 29006KT 9999 FEW015 OVC050 15/14 Q1020 NOSIG
06:30
V
16 °C 10 km+ 4.900 ft 280° 280° 7 kt METAR LFCR 160430Z AUTO 28007KT 9999 OVC049 16/15 Q1019 NOSIG
06:00
V
16 °C 10 km+ 4.700 ft 290° 290° 7 kt METAR LFCR 160400Z AUTO 29007KT 9999 OVC047 16/14 Q1019 NOSIG
05:30
V
16 °C 10 km+ 4.400 ft 290° 290° 5 kt METAR LFCR 160330Z AUTO 29005KT 9999 OVC044 16/14 Q1019 NOSIG
05:00
V
16 °C 10 km+ 4.000 ft 300° 300° 4 kt METAR LFCR 160300Z AUTO 30004KT 9999 OVC040/// //////TCU 16/14 Q1018 TEMPO BKN009 SCT035CB
04:30
V
16 °C 10 km+ 3.800 ft 300° 300° 4 kt METAR LFCR 160230Z AUTO 30004KT 9999 OVC038/// //////TCU 16/14 Q1019 TEMPO BKN009 SCT035CB
04:00
V
16 °C 10 km+ 3.300 ft 310° 310° 5 kt METAR LFCR 160200Z AUTO 31005KT 9999 OVC033 16/14 Q1018 TEMPO BKN009 SCT035CB
03:30
V
16 °C 10 km+ 3.200 ft 290° 290° 7 kt METAR LFCR 160130Z AUTO 29007KT 9999 OVC032/// ///TCU 16/14 Q1018 TEMPO BKN009 SCT035CB
03:00
M
16 °C 10 km+ 2.900 ft 290° 290° 8 kt METAR LFCR 160100Z AUTO 29008KT 9999 OVC029/// //////CB 16/15 Q1018 TEMPO BKN009 SCT035CB
02:30
M
16 °C 10 km+ 2.100 ft 290° 290° 7 kt METAR LFCR 160030Z AUTO 29007KT 9999 BKN021/// OVC026/// //////TCU 16/15 Q1018 TEMPO BKN009 SCT035CB
02:00
M
16 °C 10 km+ 2.100 ft 280° 280° 9 kt METAR LFCR 160000Z AUTO 28009KT 9999 -RA SCT011/// BKN021/// BKN038/// //////CB 16/15 Q1018 NOSIG
01:30
M
17 °C 9 km 1.400 ft 270° 270° 11 kt METAR LFCR 152330Z AUTO 27011KT 230V290 9000 RA BKN014/// BKN020/// BKN037/// ///CB 17/16 Q1018 TEMPO NSW SCT035CB
01:00
M
19 °C 10 km+ 2.400 ft 290° 290° 7 kt METAR LFCR 152300Z AUTO 29007KT 9999 -RA SCT013/// BKN024/// OVC033/// ///CB 19/17 Q1018 NOSIG
00:30
M
19 °C 10 km+ 2.400 ft Var Var 2 kt METAR LFCR 152230Z AUTO VRB02KT 9999 SCT017/// BKN024/// OVC033/// //////CB 19/17 Q1018 NOSIG
00:00
V
19 °C 10 km+ 3.100 ft 240° 240° 4 kt METAR LFCR 152200Z AUTO 24004KT 9999 BKN031/// BKN039/// OVC100/// ///CB 19/18 Q1018 NOSIG

15 juli 2024

Tijd Code Weer Temp. Zicht Plafond Wind METAR/SPECI
23:30
V
20 °C 10 km+ 4.300 ft 310° 310° 4 kt METAR LFCR 152130Z AUTO 31004KT 9999 FEW037/// BKN043/// BKN074/// ///CB 20/17 Q1017 BECMG SCT040
23:00
V
19 °C 10 km+ 7.400 ft 260° 260° 3 kt METAR LFCR 152100Z AUTO 26003KT 9999 FEW026/// BKN074/// //////CB 19/17 Q1017 BECMG SCT040
22:30
V
20 °C 10 km+ - 280° 280° 5 kt METAR LFCR 152030Z AUTO 28005KT 9999 ///CB 20/17 Q1017 BECMG SCT040
22:00
V
20 °C 10 km+ 7.400 ft 330° 330° 3 kt METAR LFCR 152000Z AUTO 33003KT 9999 FEW027/// BKN074/// OVC084/// ///TCU 20/17 Q1017 BECMG SCT040
21:30
V
21 °C 10 km+ - 320° 320° 2 kt METAR LFCR 151930Z AUTO 32002KT CAVOK 21/17 Q1016 NOSIG
21:00
V
21 °C 10 km+ - 290° 290° 4 kt METAR LFCR 151900Z AUTO 29004KT CAVOK 21/17 Q1016 NOSIG
20:30
V
22 °C 10 km+ 7.000 ft 280° 280° 5 kt METAR LFCR 151830Z AUTO 28005KT 9999 FEW027 BKN070 22/17 Q1016 NOSIG
20:00
M
22 °C 10 km+ 3.000 ft 300° 300° 4 kt METAR LFCR 151800Z AUTO 30004KT 9999 BKN030 BKN068 BKN110 22/17 Q1016 NOSIG
19:30
V
23 °C 10 km+ - 290° 290° 7 kt METAR LFCR 151730Z AUTO 29007KT CAVOK 23/17 Q1015 NOSIG
19:00
V
23 °C 10 km+ - 280° 280° 8 kt METAR LFCR 151700Z AUTO 28008KT CAVOK 23/16 Q1015 TEMPO FEW060CB
18:30
V
24 °C 10 km+ - 300° 300° 11 kt METAR LFCR 151630Z AUTO 30011KT 260V340 9999 SCT032 SCT040 24/17 Q1015 TEMPO FEW060CB
18:00
V
24 °C 10 km+ - 290° 290° 8 kt METAR LFCR 151600Z AUTO 29008KT 230V330 9999 FEW033 SCT110 24/17 Q1015 TEMPO FEW060CB
17:30
V
25 °C 10 km+ - 280° 280° 8 kt METAR LFCR 151530Z AUTO 28008KT 250V320 CAVOK 25/17 Q1015 TEMPO FEW060CB
17:00
V
24 °C 10 km+ - 280° 280° 11 kt METAR LFCR 151500Z AUTO 28011KT 230V310 CAVOK 24/17 Q1015 TEMPO 31018G30KT 4000 TSRA FEW060CB
16:30
V
24 °C 10 km+ - 280° 280° 4 kt METAR LFCR 151430Z AUTO 28004KT 230V320 9999 //////CB 24/18 Q1014 TEMPO 31018G30KT 4000 TSRA
16:00
M
23 °C 10 km+ 3.000 ft 300° 300° 8 kt METAR LFCR 151400Z AUTO 30008KT 200V350 9999 SCT020/// BKN030/// BKN052/// ///CB 23/19 Q1015 TEMPO 31018G30KT 4000 TSRA
15:30
V
22 °C 10 km+ 4.200 ft Var Var 4 kt METAR LFCR 151330Z AUTO VRB04KT 9999 VCTS SCT036/// BKN042/// BKN052/// ///CB 22/19 Q1015 TEMPO 31018G30KT 4000 TSRA
15:00
V
21 °C 9 km 4.500 ft 270° 270° 6 kt METAR LFCR 151300Z AUTO 27006KT 210V310 9000 -RA VCTS FEW034/// BKN045/// BKN058/// ///CB 21/19 Q1014 TEMPO 31018G30KT 4000 TSRA
14:30
V
26 °C 10 km+ 4.400 ft 200° 200° 8 kt METAR LFCR 151230Z AUTO 20008KT 160V230 9999 TS SCT033/// BKN044/// BKN150/// ///CB 26/19 Q1014 TEMPO 31018G30KT 4000 TSRA
14:00
V
27 °C 10 km+ - 200° 200° 9 kt METAR LFCR 151200Z AUTO 20009KT 140V240 9999 FEW033/// SCT170/// //////CB 27/19 Q1014 TEMPO 31018G30KT 4000 TSRA
13:30
V
27 °C 10 km+ 3.200 ft 210° 210° 10 kt METAR LFCR 151130Z AUTO 21010KT 170V260 9999 BKN032 BKN041 BKN160 27/19 Q1014 TEMPO 31018G30KT 4000 TSRA SCT035CB
13:00
V
26 °C 10 km+ 3.900 ft 200° 200° 7 kt METAR LFCR 151100Z AUTO 20007KT 150V230 9999 SCT033 BKN039 26/19 Q1013 BECMG 29010KT SCT040TCU
12:30
V
27 °C 10 km+ - 120° 120° 11 kt METAR LFCR 151030Z AUTO 12011KT CAVOK 27/19 Q1013 BECMG 29010KT SCT040TCU
12:00
V
26 °C 10 km+ - 140° 140° 12 kt METAR LFCR 151000Z AUTO 14012KT 110V170 CAVOK 26/19 Q1012 BECMG 29010KT SCT040TCU
11:30
V
26 °C 10 km+ - 130° 130° 14 kt METAR LFCR 150930Z AUTO 13014KT CAVOK 26/19 Q1012 BECMG 29010KT SCT040TCU
11:00
V
26 °C 10 km+ - 120° 120° 13 kt METAR LFCR 150900Z AUTO 12013KT CAVOK 26/19 Q1012 NOSIG
10:30
V
25 °C 10 km+ - 130° 130° 15 kt METAR LFCR 150830Z AUTO 13015KT 090V150 CAVOK 25/18 Q1012 NOSIG
10:00
V
24 °C 10 km+ - 120° 120° 14 kt METAR LFCR 150800Z AUTO 12014KT CAVOK 24/18 Q1012 NOSIG
09:30
V
23 °C 10 km+ - 120° 120° 14 kt METAR LFCR 150730Z AUTO 12014KT CAVOK 23/18 Q1012 NOSIG
09:00
V
22 °C 10 km+ - 120° 120° 15 kt METAR LFCR 150700Z AUTO 12015KT CAVOK 22/17 Q1012 NOSIG
08:30
V
21 °C 10 km+ - 130° 130° 15 kt METAR LFCR 150630Z AUTO 13015KT CAVOK 21/17 Q1013 NOSIG
08:00
V
20 °C 10 km+ - 130° 130° 10 kt METAR LFCR 150600Z AUTO 13010KT CAVOK 20/17 Q1012 NOSIG
Wijziging doorgeven